« Back
NWS Peachtree City, Ga » Text Product » AHN Terminal Aerodrome Forecast


Printer-friendly Version
Current Version              Previous Versions:   1  2  3  4  5  6  7  8  9  

Terminal Aerodrome Forecast

718
FTUS42 KFFC 220543
TAFAHN
TAF
KAHN 220543Z 2206/2306 05008KT 4SM -RA BR OVC009
     FM220800 09006KT 3SM -DZ BR OVC007
     FM221000 08006KT 2SM -DZ BR OVC003
     FM221600 09008KT 5SM -DZ BR OVC007
     FM230000 09011KT 5SM -DZ BR OVC004=



USA.gov is the U.S. government's official web portal to all federal, state and local government web resources and services.